Time;durP1;ratioP1;P1;durP2;ratioP2;P2;SDS_P1;SDS_P2;PMS_P1;PMS_P2;Temp;Humidity;BMP_temperature;BMP_pressure;BME280_temperature;BME280_humidity;BME280_pressure;Samples;Min_cycle;Max_cycle;Signal;HPM_P1;HPM_P2
2023/08/30 00:00:00;;;;;;;13.18;9.68;;;;;;;18.34;65.05;100270.75;684984;28;1272;-84
2023/08/30 00:00:21;;;;;;;11.93;9.85;;;;;;;18.32;65.11;100272.53;686044;28;1661;-84
2023/08/30 00:00:42;;;;;;;11.50;10.30;;;;;;;18.39;64.90;100286.56;687913;28;1049;-84
2023/08/30 00:01:02;;;;;;;11.48;10.35;;;;;;;18.29;65.10;100264.66;685954;28;1271;-84
2023/08/30 00:01:23;;;;;;;11.80;10.27;;;;;;;18.34;64.96;100273.38;685915;28;1552;-84
2023/08/30 00:01:43;;;;;;;12.23;10.00;;;;;;;18.31;64.95;100269.94;684935;28;1146;-84
2023/08/30 00:02:04;;;;;;;12.48;9.75;;;;;;;18.36;64.94;100283.94;684916;28;1234;-84
2023/08/30 00:02:24;;;;;;;10.97;9.53;;;;;;;18.34;65.09;100281.31;687502;28;1453;-84
2023/08/30 00:02:45;;;;;;;10.98;9.80;;;;;;;18.36;65.04;100274.25;685031;28;1546;-84
2023/08/30 00:03:06;;;;;;;11.00;9.90;;;;;;;18.35;64.99;100282.19;682094;29;1290;-84
2023/08/30 00:03:26;;;;;;;11.70;10.50;;;;;;;18.33;65.03;100279.56;682474;29;1068;-84
2023/08/30 00:03:47;;;;;;;12.25;10.98;;;;;;;18.35;64.96;100272.50;681869;28;1290;-83
2023/08/30 00:04:07;;;;;;;16.42;11.25;;;;;;;18.34;64.85;100269.88;684082;28;1188;-83
2023/08/30 00:04:29;;;;;;;17.53;11.10;;;;;;;18.33;65.03;100262.84;684537;28;1378;-83
2023/08/30 00:04:49;;;;;;;16.88;10.70;;;;;;;18.34;65.11;100270.75;679420;29;1308;-84
2023/08/30 00:05:10;;;;;;;13.37;10.20;;;;;;;18.38;65.18;100278.66;683660;28;1093;-83
2023/08/30 00:05:31;;;;;;;12.30;10.02;;;;;;;18.36;64.98;100276.00;684998;28;1958;-85
2023/08/30 00:05:52;;;;;;;13.00;10.50;;;;;;;18.36;64.93;100274.25;679533;29;1276;-84
2023/08/30 00:06:12;;;;;;;11.05;9.95;;;;;;;18.33;64.98;100270.78;686553;28;1249;-84
2023/08/30 00:06:33;;;;;;;11.37;10.17;;;;;;;18.32;65.07;100275.19;687810;28;1259;-84
2023/08/30 00:06:53;;;;;;;11.70;9.93;;;;;;;18.31;65.07;100272.56;687629;28;1082;-85
2023/08/30 00:07:14;;;;;;;12.20;10.40;;;;;;;18.34;65.07;100278.66;686719;28;1106;-84
2023/08/30 00:07:35;;;;;;;11.60;9.65;;;;;;;18.33;65.08;100271.63;684494;28;1331;-84
2023/08/30 00:07:55;;;;;;;11.65;9.70;;;;;;;18.30;65.17;100273.44;684950;28;1216;-85
2023/08/30 00:08:19;;;;;;;13.10;10.18;;;;;;;18.28;65.06;100267.31;689699;28;1286;-84
2023/08/30 00:08:40;;;;;;;13.77;10.40;;;;;;;18.28;65.05;100270.84;685007;28;1249;-84
2023/08/30 00:09:01;;;;;;;12.90;9.90;;;;;;;18.28;65.19;100268.19;679390;29;1255;-84
2023/08/30 00:09:21;;;;;;;12.10;9.75;;;;;;;18.31;65.18;100281.34;684625;28;1262;-84
2023/08/30 00:09:42;;;;;;;11.45;10.00;;;;;;;18.28;65.20;100272.59;679896;29;1109;-84
2023/08/30 00:10:03;;;;;;;11.40;10.30;;;;;;;18.28;65.41;100265.56;677429;29;1110;-84
2023/08/30 00:10:24;;;;;;;12.27;10.98;;;;;;;18.25;65.18;100267.34;682878;28;1217;-84
2023/08/30 00:10:48;;;;;;;13.38;11.00;;;;;;;18.28;65.18;100270.84;684252;28;1192;-84
2023/08/30 00:11:09;;;;;;;14.18;10.70;;;;;;;18.25;65.01;100267.34;684446;28;1426;-84
2023/08/30 00:11:30;;;;;;;13.70;10.37;;;;;;;18.26;65.04;100267.31;685272;28;1608;-84
2023/08/30 00:11:50;;;;;;;11.82;9.80;;;;;;;18.25;65.36;100265.56;682247;29;1269;-84
2023/08/30 00:12:11;;;;;;;11.40;10.00;;;;;;;18.26;65.38;100267.31;686824;28;1298;-84
2023/08/30 00:12:32;;;;;;;10.83;9.70;;;;;;;18.27;65.16;100269.09;687682;28;1510;-85
2023/08/30 00:12:52;;;;;;;11.48;9.68;;;;;;;18.25;65.40;100270.00;684713;28;1155;-84
2023/08/30 00:13:13;;;;;;;12.10;9.63;;;;;;;18.26;65.21;100267.31;685166;28;1065;-84
2023/08/30 00:13:35;;;;;;;14.75;10.07;;;;;;;18.26;65.26;100256.75;684732;28;1304;-84
2023/08/30 00:14:05;;;;;;;14.52;10.00;;;;;;;18.24;65.15;100262.97;679761;29;1287;-84
2023/08/30 00:14:26;;;;;;;12.02;9.15;;;;;;;18.24;65.32;100271.75;678475;29;1826;-85
2023/08/30 00:14:47;;;;;;;9.83;8.83;;;;;;;18.25;65.28;100265.56;679064;29;1180;-83
2023/08/30 00:15:07;;;;;;;10.00;9.00;;;;;;;18.22;65.32;100268.25;683057;28;1293;-83
2023/08/30 00:15:28;;;;;;;11.23;9.63;;;;;;;18.20;65.59;100262.13;685066;28;1821;-83
2023/08/30 00:15:48;;;;;;;11.18;9.98;;;;;;;18.19;65.43;100265.69;684517;28;1029;-84
2023/08/30 00:16:09;;;;;;;12.60;10.00;;;;;;;18.23;65.42;100272.66;683172;28;1608;-84
2023/08/30 00:16:30;;;;;;;13.77;10.40;;;;;;;18.19;65.25;100266.53;683314;28;1414;-84
2023/08/30 00:16:50;;;;;;;14.48;10.70;;;;;;;18.18;65.35;100258.63;685130;28;1066;-85
2023/08/30 00:17:11;;;;;;;14.50;10.70;;;;;;;18.17;65.38;100259.50;683759;28;1135;-84
2023/08/30 00:17:32;;;;;;;12.33;9.67;;;;;;;18.13;65.38;100256.00;679665;29;1102;-84
2023/08/30 00:17:53;;;;;;;12.77;10.02;;;;;;;18.13;65.53;100252.50;679627;29;1315;-84
2023/08/30 00:18:13;;;;;;;12.90;10.45;;;;;;;18.20;65.35;100263.00;689232;28;1124;-84
2023/08/30 00:18:34;;;;;;;12.80;10.50;;;;;;;18.18;65.38;100271.81;682004;28;1446;-84
2023/08/30 00:18:55;;;;;;;11.45;10.07;;;;;;;18.18;65.51;100266.53;685086;28;1074;-84
2023/08/30 00:19:16;;;;;;;12.10;10.43;;;;;;;18.18;65.47;100266.53;682582;28;1278;-84
2023/08/30 00:19:36;;;;;;;12.93;11.45;;;;;;;18.14;65.59;100256.88;682003;29;949;-84
2023/08/30 00:19:58;;;;;;;13.00;11.60;;;;;;;18.20;65.51;100264.78;682569;28;1225;-84
2023/08/30 00:20:19;;;;;;;12.10;10.90;;;;;;;18.24;65.46;100273.53;690544;28;1292;-84
2023/08/30 00:20:41;;;;;;;11.68;10.50;;;;;;;18.18;65.48;100269.19;689172;28;1328;-84
2023/08/30 00:21:02;;;;;;;11.07;9.98;;;;;;;18.16;65.47;100260.41;687461;28;1470;-84
2023/08/30 00:21:22;;;;;;;10.90;9.75;;;;;;;18.15;65.59;100254.28;685183;28;1053;-84
2023/08/30 00:21:44;;;;;;;10.68;9.57;;;;;;;18.17;65.39;100267.44;687462;28;1393;-84
2023/08/30 00:22:07;;;;;;;11.63;9.93;;;;;;;18.25;65.56;100272.66;680116;28;1400;-84
2023/08/30 00:22:28;;;;;;;11.52;10.00;;;;;;;18.23;65.42;100267.38;685115;28;1531;-84
2023/08/30 00:22:49;;;;;;;12.07;10.30;;;;;;;18.13;65.48;100252.50;688583;28;1424;-84
2023/08/30 00:23:09;;;;;;;12.57;10.67;;;;;;;18.24;65.50;100263.84;686538;28;1304;-84
2023/08/30 00:23:30;;;;;;;12.20;10.70;;;;;;;18.16;65.62;100260.41;687261;28;1247;-84
2023/08/30 00:23:51;;;;;;;13.27;10.93;;;;;;;18.17;65.38;100254.22;687735;28;1201;-84
2023/08/30 00:24:12;;;;;;;12.60;10.45;;;;;;;18.15;65.47;100253.38;690283;28;1177;-84
2023/08/30 00:24:41;;;;;;;11.82;9.70;;;;;;;18.20;65.39;100265.63;687211;28;1603;-84
2023/08/30 00:25:02;;;;;;;10.60;9.52;;;;;;;18.21;65.52;100264.72;687010;28;1248;-84
2023/08/30 00:25:23;;;;;;;10.75;9.75;;;;;;;18.17;65.45;100260.41;687441;28;1919;-84
2023/08/30 00:25:43;;;;;;;12.73;9.75;;;;;;;18.20;65.47;100267.41;684536;28;864;-84
2023/08/30 00:26:04;;;;;;;12.18;9.48;;;;;;;18.17;65.59;100262.16;687098;28;1207;-84
2023/08/30 00:26:25;;;;;;;12.10;9.30;;;;;;;18.16;65.42;100260.41;687785;28;1141;-84
2023/08/30 00:26:46;;;;;;;12.50;9.27;;;;;;;18.15;65.43;100263.94;682346;28;1475;-84
2023/08/30 00:27:08;;;;;;;13.23;9.60;;;;;;;18.15;65.56;100262.19;680301;29;1415;-84
2023/08/30 00:27:29;;;;;;;14.07;9.53;;;;;;;18.12;65.56;100261.31;684855;28;1203;-84
2023/08/30 00:27:49;;;;;;;11.90;10.00;;;;;;;18.18;65.66;100275.34;682406;28;1138;-83
2023/08/30 00:28:10;;;;;;;11.97;10.43;;;;;;;18.12;65.49;100267.47;686374;28;1150;-84
2023/08/30 00:28:31;;;;;;;13.27;11.10;;;;;;;18.09;65.59;100264.88;684631;28;1639;-85
2023/08/30 00:28:52;;;;;;;13.73;10.88;;;;;;;18.08;65.63;100263.13;679330;29;1388;-84
2023/08/30 00:29:12;;;;;;;14.02;10.60;;;;;;;18.10;65.54;100269.25;682799;28;1057;-84
2023/08/30 00:29:34;;;;;;;12.90;10.27;;;;;;;18.05;65.64;100266.66;682405;28;1826;-84
2023/08/30 00:29:55;;;;;;;14.27;10.63;;;;;;;18.02;65.75;100264.03;682395;28;1068;-85
2023/08/30 00:30:15;;;;;;;13.80;10.75;;;;;;;18.08;65.67;100271.91;686766;28;1239;-84
2023/08/30 00:30:36;;;;;;;12.57;10.50;;;;;;;18.00;65.73;100260.56;680254;28;1217;-85
2023/08/30 00:30:58;;;;;;;11.90;10.00;;;;;;;17.98;65.79;100259.69;679708;29;1049;-84
2023/08/30 00:31:18;;;;;;;12.68;10.40;;;;;;;18.02;65.71;100269.31;683636;28;1236;-84
2023/08/30 00:31:39;;;;;;;15.07;10.35;;;;;;;17.99;65.92;100261.44;682161;29;1725;-84
2023/08/30 00:31:59;;;;;;;15.47;10.47;;;;;;;18.00;66.08;100265.84;679554;29;1381;-84
2023/08/30 00:32:20;;;;;;;13.75;10.10;;;;;;;17.96;65.81;100269.41;679561;29;1331;-84
2023/08/30 00:32:41;;;;;;;12.55;10.60;;;;;;;17.95;65.88;100267.66;682414;28;1222;-84
2023/08/30 00:33:02;;;;;;;11.98;10.70;;;;;;;17.95;66.08;100268.53;680105;28;1785;-85
2023/08/30 00:33:23;;;;;;;12.10;10.60;;;;;;;17.95;66.04;100265.88;689663;28;1391;-84
2023/08/30 00:33:44;;;;;;;12.03;10.73;;;;;;;17.97;66.06;100276.44;686476;28;1805;-84
2023/08/30 00:34:06;;;;;;;14.43;11.20;;;;;;;17.95;66.06;100275.59;688263;28;1168;-84
2023/08/30 00:34:27;;;;;;;14.35;10.95;;;;;;;17.91;66.19;100263.28;686691;28;1189;-84
2023/08/30 00:34:51;;;;;;;13.80;10.45;;;;;;;17.97;66.01;100279.06;684800;28;1287;-84
2023/08/30 00:35:11;;;;;;;12.07;10.40;;;;;;;17.91;66.10;100260.66;687766;28;1267;-84
2023/08/30 00:35:33;;;;;;;13.30;10.50;;;;;;;17.90;66.26;100269.47;684543;28;1312;-83
2023/08/30 00:36:00;;;;;;;14.47;10.87;;;;;;;17.91;66.25;100271.22;682884;28;1696;-85
2023/08/30 00:36:20;;;;;;;13.43;10.90;;;;;;;17.93;66.23;100274.69;686202;28;1484;-84
2023/08/30 00:36:41;;;;;;;12.98;10.52;;;;;;;17.92;66.29;100271.22;679613;29;1210;-84
2023/08/30 00:37:01;;;;;;;11.73;10.43;;;;;;;17.91;66.12;100265.94;683251;28;1814;-84
2023/08/30 00:37:23;;;;;;;13.02;10.70;;;;;;;17.89;66.21;100263.31;682268;28;1313;-84
2023/08/30 00:37:44;;;;;;;13.23;11.02;;;;;;;17.91;66.34;100271.22;682248;29;1403;-84
2023/08/30 00:38:05;;;;;;;13.02;10.90;;;;;;;17.90;66.25;100270.31;686089;28;1731;-85
2023/08/30 00:38:27;;;;;;;12.98;11.32;;;;;;;17.94;66.43;100277.34;684742;28;1315;-84
2023/08/30 00:38:49;;;;;;;14.00;11.70;;;;;;;17.88;66.13;100265.97;685136;28;1419;-84
2023/08/30 00:39:09;;;;;;;12.55;11.15;;;;;;;17.93;66.28;100279.97;679287;29;1179;-83
2023/08/30 00:39:30;;;;;;;12.83;11.00;;;;;;;17.87;66.44;100266.84;683054;28;1199;-84
2023/08/30 00:39:51;;;;;;;12.70;11.20;;;;;;;17.88;66.38;100266.84;687839;28;1152;-83
2023/08/30 00:40:11;;;;;;;13.35;11.80;;;;;;;17.88;66.33;100266.84;687342;28;1119;-85
2023/08/30 00:40:40;;;;;;;12.93;11.40;;;;;;;17.89;66.41;100273.88;685806;28;1245;-84
2023/08/30 00:41:01;;;;;;;12.20;10.90;;;;;;;17.81;66.31;100263.41;681867;28;1312;-84
2023/08/30 00:41:22;;;;;;;13.20;11.50;;;;;;;17.80;66.40;100266.94;684255;28;1265;-84
2023/08/30 00:41:42;;;;;;;12.48;11.18;;;;;;;17.83;66.63;100267.78;676999;29;1226;-84
2023/08/30 00:42:05;;;;;;;12.43;11.07;;;;;;;17.79;66.33;100267.81;679889;28;1645;-84
2023/08/30 00:42:27;;;;;;;12.52;11.23;;;;;;;17.76;66.60;100262.56;684780;28;1488;-84
2023/08/30 00:42:48;;;;;;;13.88;11.90;;;;;;;17.75;66.53;100260.81;682589;28;1767;-83
2023/08/30 00:43:08;;;;;;;13.03;11.57;;;;;;;17.75;66.71;100266.09;681720;29;1645;-84
2023/08/30 00:43:29;;;;;;;12.80;11.30;;;;;;;17.78;66.54;100265.19;682220;29;1223;-84
2023/08/30 00:43:49;;;;;;;12.37;11.07;;;;;;;17.76;66.66;100267.84;682065;29;1433;-84
2023/08/30 00:44:10;;;;;;;12.38;11.07;;;;;;;17.73;66.64;100267.00;678810;29;1073;-84
2023/08/30 00:44:32;;;;;;;12.20;10.90;;;;;;;17.76;66.65;100266.97;679568;29;1023;-84
2023/08/30 00:44:53;;;;;;;11.50;10.30;;;;;;;17.73;66.76;100267.88;682353;28;1186;-85
2023/08/30 00:45:13;;;;;;;11.33;9.83;;;;;;;17.70;66.75;100267.88;683839;28;1196;-84
2023/08/30 00:45:38;;;;;;;11.95;10.02;;;;;;;17.64;66.81;100263.56;681063;28;1922;-84
2023/08/30 00:45:59;;;;;;;13.88;11.15;;;;;;;17.67;66.69;100267.94;685719;28;1118;-84
2023/08/30 00:46:19;;;;;;;13.60;11.65;;;;;;;17.57;66.86;100255.72;687455;28;1289;-83
2023/08/30 00:46:40;;;;;;;13.73;11.73;;;;;;;17.54;67.09;100268.03;684885;28;1561;-84
2023/08/30 00:47:02;;;;;;;12.00;10.80;;;;;;;17.51;67.17;100268.06;681903;29;1286;-84
2023/08/30 00:47:23;;;;;;;11.32;10.13;;;;;;;17.57;67.28;100271.56;677342;29;824;-83
2023/08/30 00:47:45;;;;;;;11.30;10.18;;;;;;;17.55;67.09;100255.72;677893;29;1567;-84
2023/08/30 00:48:06;;;;;;;13.93;10.63;;;;;;;17.59;67.18;100270.66;682607;28;1467;-84
2023/08/30 00:48:27;;;;;;;15.52;11.20;;;;;;;17.53;67.08;100255.75;684900;28;1134;-84
2023/08/30 00:48:48;;;;;;;15.15;11.40;;;;;;;17.55;67.17;100263.66;685351;28;1666;-84
2023/08/30 00:49:09;;;;;;;13.27;11.73;;;;;;;17.52;67.06;100261.91;683169;28;1127;-84
2023/08/30 00:49:33;;;;;;;13.15;11.75;;;;;;;17.49;67.04;100253.16;681736;29;1422;-83
2023/08/30 00:49:54;;;;;;;12.80;11.50;;;;;;;17.51;67.04;100254.00;682195;29;1391;-85
2023/08/30 00:50:16;;;;;;;12.57;11.27;;;;;;;17.47;67.19;100261.09;684247;28;1220;-85
2023/08/30 00:50:37;;;;;;;12.98;11.18;;;;;;;17.50;67.05;100263.69;684560;28;1351;-84
2023/08/30 00:50:58;;;;;;;12.63;10.80;;;;;;;17.48;67.29;100257.56;683296;28;1096;-84
2023/08/30 00:51:19;;;;;;;13.43;11.00;;;;;;;17.46;67.08;100256.69;681917;29;1286;-84
2023/08/30 00:51:40;;;;;;;12.95;11.02;;;;;;;17.46;67.16;100256.69;682360;29;1250;-83
2023/08/30 00:52:05;;;;;;;13.68;11.50;;;;;;;17.46;67.19;100259.31;684133;28;1587;-84
2023/08/30 00:52:26;;;;;;;15.07;12.27;;;;;;;17.44;67.14;100261.09;682463;29;1074;-84
2023/08/30 00:52:49;;;;;;;14.07;12.57;;;;;;;17.47;67.17;100261.09;684901;28;1210;-84
2023/08/30 00:53:11;;;;;;;13.88;12.25;;;;;;;17.43;67.19;100262.00;683172;28;1327;-84
2023/08/30 00:53:34;;;;;;;13.05;11.75;;;;;;;17.38;67.31;100259.41;684596;28;1588;-84
2023/08/30 00:53:55;;;;;;;13.80;11.80;;;;;;;17.40;67.44;100260.25;687384;28;1144;-85
2023/08/30 00:54:16;;;;;;;12.57;11.27;;;;;;;17.35;67.46;100250.63;684660;28;1405;-85
2023/08/30 00:54:38;;;;;;;12.93;11.50;;;;;;;17.37;67.45;100255.00;682250;29;1391;-84
2023/08/30 00:54:59;;;;;;;12.80;11.50;;;;;;;17.37;67.38;100260.28;681972;28;1096;-84
2023/08/30 00:55:20;;;;;;;13.50;12.10;;;;;;;17.34;67.44;100248.88;684549;28;1402;-84
2023/08/30 00:55:43;;;;;;;13.50;12.10;;;;;;;17.38;67.46;100264.66;684085;28;1272;-84
2023/08/30 00:56:03;;;;;;;13.98;12.57;;;;;;;17.33;67.40;100253.28;681729;28;1397;-84
2023/08/30 00:56:24;;;;;;;14.25;12.20;;;;;;;17.32;67.41;100256.81;687866;28;1415;-84
2023/08/30 00:56:46;;;;;;;15.23;12.35;;;;;;;17.29;67.49;100248.03;685195;28;1315;-84
2023/08/30 00:57:08;;;;;;;18.65;12.30;;;;;;;17.29;67.30;100250.69;682800;28;1323;-84
2023/08/30 00:57:29;;;;;;;18.05;12.93;;;;;;;17.26;67.46;100257.72;682695;28;1186;-84
2023/08/30 00:57:50;;;;;;;17.15;12.68;;;;;;;17.23;67.55;100252.47;685153;28;1030;-83
2023/08/30 00:58:11;;;;;;;14.63;12.85;;;;;;;17.30;67.43;100261.22;686418;28;1240;-84
2023/08/30 00:58:32;;;;;;;13.63;11.90;;;;;;;17.22;67.60;100253.34;687227;28;1284;-85
2023/08/30 00:58:54;;;;;;;13.38;11.95;;;;;;;17.26;67.74;100265.66;687544;28;1283;-84
2023/08/30 00:59:15;;;;;;;13.02;11.73;;;;;;;17.22;67.74;100255.13;680879;29;1113;-84
2023/08/30 00:59:36;;;;;;;13.40;12.00;;;;;;;17.22;67.86;100257.78;681360;28;1843;-84
2023/08/30 00:59:57;;;;;;;13.05;11.73;;;;;;;17.23;67.88;100257.75;683341;28;1128;-84
2023/08/30 01:00:18;;;;;;;13.60;12.20;;;;;;;17.16;67.86;100247.25;684581;28;1275;-84
2023/08/30 01:00:39;;;;;;;14.37;12.40;;;;;;;17.17;67.77;100252.50;682888;28;1807;-84
2023/08/30 01:01:00;;;;;;;15.75;13.00;;;;;;;17.20;67.85;100260.38;684729;28;1302;-84
2023/08/30 01:01:21;;;;;;;15.15;12.60;;;;;;;17.15;67.88;100254.25;684940;28;1382;-83
2023/08/30 01:01:43;;;;;;;15.98;12.55;;;;;;;17.13;67.96;100248.13;687354;28;1445;-84
2023/08/30 01:02:04;;;;;;;17.10;12.32;;;;;;;17.14;67.82;100255.16;681208;29;1267;-84
2023/08/30 01:02:28;;;;;;;17.38;12.60;;;;;;;17.12;67.90;100252.53;679330;29;1276;-84
2023/08/30 01:02:49;;;;;;;15.02;12.30;;;;;;;17.13;68.01;100256.94;681126;29;1462;-84
2023/08/30 01:03:09;;;;;;;13.55;11.70;;;;;;;17.16;68.02;100257.78;680761;29;1190;-84
2023/08/30 01:03:30;;;;;;;13.52;11.70;;;;;;;17.09;67.96;100244.63;684788;28;1233;-84
2023/08/30 01:03:51;;;;;;;13.50;11.87;;;;;;;17.10;67.89;100253.44;684171;28;1353;-83
2023/08/30 01:04:14;;;;;;;13.45;12.05;;;;;;;17.09;67.98;100249.06;683579;28;1349;-83
2023/08/30 01:04:34;;;;;;;15.73;11.95;;;;;;;17.09;67.97;100252.56;679266;29;1254;-84
2023/08/30 01:04:55;;;;;;;14.73;11.43;;;;;;;17.06;68.10;100254.34;682317;28;1259;-84
2023/08/30 01:05:17;;;;;;;14.57;11.05;;;;;;;17.06;68.12;100254.34;682079;29;1288;-84
2023/08/30 01:05:38;;;;;;;12.50;10.70;;;;;;;17.05;68.11;100257.84;684378;28;1906;-84
2023/08/30 01:05:59;;;;;;;13.20;10.90;;;;;;;17.06;68.10;100259.59;684568;28;1335;-84
2023/08/30 01:06:20;;;;;;;12.75;11.05;;;;;;;16.97;68.16;100245.59;684876;28;1145;-84
2023/08/30 01:06:41;;;;;;;15.38;12.23;;;;;;;16.98;68.23;100243.84;684975;28;1260;-84
2023/08/30 01:07:02;;;;;;;16.30;12.63;;;;;;;17.02;68.13;100252.63;681963;28;1466;-85
2023/08/30 01:07:23;;;;;;;15.43;12.15;;;;;;;16.96;68.32;100251.75;687961;28;906;-84
2023/08/30 01:07:44;;;;;;;12.32;11.02;;;;;;;16.96;68.30;100246.50;682183;28;1274;-84
2023/08/30 01:08:05;;;;;;;12.02;10.77;;;;;;;16.97;68.29;100245.59;682335;28;1165;-84
2023/08/30 01:08:27;;;;;;;14.38;11.80;;;;;;;16.94;68.38;100240.38;682288;29;1298;-84
2023/08/30 01:08:48;;;;;;;15.15;11.90;;;;;;;16.99;68.46;100254.38;682265;29;1386;-84
2023/08/30 01:09:09;;;;;;;15.32;11.90;;;;;;;16.94;68.40;100240.38;682982;28;1588;-84
2023/08/30 01:09:30;;;;;;;14.48;11.65;;;;;;;16.96;68.42;100243.00;690358;28;1122;-84
2023/08/30 01:09:50;;;;;;;15.32;12.38;;;;;;;16.95;68.59;100242.13;687731;28;1213;-84
2023/08/30 01:10:11;;;;;;;15.27;12.03;;;;;;;16.92;68.42;100239.50;681947;29;1179;-84
2023/08/30 01:11:10;;;;;;;13.95;12.40;;;;;;;16.98;68.42;100246.50;681700;29;1367;-84
2023/08/30 01:11:49;;;;;;;21.85;12.43;;;;;;;16.95;68.40;100249.13;684991;28;1001;-84
2023/08/30 01:12:17;;;;;;;13.82;12.40;;;;;;;16.96;68.52;100248.28;687379;28;1125;-84
2023/08/30 01:12:47;;;;;;;15.43;13.82;;;;;;;16.94;68.51;100248.28;682370;28;996;-84
2023/08/30 01:13:12;;;;;;;15.05;13.45;;;;;;;16.92;68.63;100247.41;679696;29;1447;-84
2023/08/30 01:13:42;;;;;;;13.80;12.40;;;;;;;16.89;68.78;100242.16;684422;28;1451;-83
2023/08/30 01:14:22;;;;;;;14.30;12.85;;;;;;;16.87;68.62;100241.28;684705;28;1218;-84
2023/08/30 01:14:52;;;;;;;14.90;13.30;;;;;;;16.92;68.81;100241.25;682311;28;1319;-84
2023/08/30 01:15:18;;;;;;;15.30;13.77;;;;;;;16.86;68.75;100239.56;684965;28;1164;-84
2023/08/30 01:15:40;;;;;;;15.27;13.77;;;;;;;16.91;68.89;100245.63;684209;28;1479;-83
2023/08/30 01:16:02;;;;;;;14.20;12.80;;;;;;;16.82;68.86;100224.63;684167;28;1488;-83
2023/08/30 01:16:24;;;;;;;14.18;12.40;;;;;;;16.89;68.75;100242.16;687330;28;1512;-84
2023/08/30 01:16:47;;;;;;;15.35;12.32;;;;;;;16.80;68.82;100224.66;684851;28;1390;-84
2023/08/30 01:17:10;;;;;;;15.30;12.32;;;;;;;16.79;68.84;100228.16;687163;28;1157;-85
2023/08/30 01:17:33;;;;;;;15.07;13.38;;;;;;;16.77;68.93;100221.16;682408;28;997;-84
2023/08/30 01:17:56;;;;;;;15.30;13.70;;;;;;;16.81;68.86;100236.94;684393;28;1233;-84
2023/08/30 01:18:19;;;;;;;15.82;13.77;;;;;;;16.76;69.03;100225.56;684912;28;1516;-84
2023/08/30 01:18:40;;;;;;;15.38;12.48;;;;;;;16.77;68.83;100232.56;682910;28;1388;-84
2023/08/30 01:19:17;;;;;;;14.68;11.63;;;;;;;16.76;68.90;100236.09;679536;28;1078;-84
2023/08/30 01:19:49;;;;;;;17.50;12.25;;;;;;;16.79;69.03;100241.31;684792;28;1413;-84
2023/08/30 01:20:15;;;;;;;17.17;12.32;;;;;;;16.78;69.06;100238.72;685985;28;1452;-84
2023/08/30 01:20:38;;;;;;;13.52;11.60;;;;;;;16.73;68.94;100236.13;684959;28;982;-84
2023/08/30 01:21:03;;;;;;;12.10;10.90;;;;;;;16.69;69.04;100230.00;686786;28;1314;-84
2023/08/30 01:22:03;;;;;;;11.98;10.70;;;;;;;16.69;69.15;100234.38;679240;29;1399;-84
2023/08/30 01:22:34;;;;;;;11.73;10.52;;;;;;;16.62;69.25;100230.03;682518;29;1424;-84
2023/08/30 01:23:10;;;;;;;12.68;11.10;;;;;;;16.65;69.28;100240.56;684878;28;1416;-84
2023/08/30 01:23:47;;;;;;;14.75;11.75;;;;;;;16.62;69.12;100249.34;683704;28;1201;-84
2023/08/30 01:24:12;;;;;;;15.77;12.20;;;;;;;16.56;69.29;100228.31;685509;28;1210;-84
2023/08/30 01:24:44;;;;;;;13.20;11.65;;;;;;;16.56;69.42;100238.84;685214;28;1399;-83
2023/08/30 01:25:08;;;;;;;14.50;13.00;;;;;;;16.57;69.13;100235.31;684272;28;1272;-83
2023/08/30 01:26:06;;;;;;;14.82;13.00;;;;;;;16.56;69.25;100244.09;681730;28;1982;-84
2023/08/30 01:26:51;;;;;;;14.32;12.80;;;;;;;16.51;69.49;100238.88;683573;28;1863;-84
2023/08/30 01:27:13;;;;;;;17.60;13.70;;;;;;;16.49;69.32;100237.13;686759;28;1057;-84
2023/08/30 01:27:36;;;;;;;15.48;13.48;;;;;;;16.46;69.38;100231.88;683708;28;1318;-84
2023/08/30 01:27:58;;;;;;;16.40;13.35;;;;;;;16.48;69.41;100238.91;687542;28;993;-84
2023/08/30 01:28:22;;;;;;;18.08;14.05;;;;;;;16.49;69.38;100242.38;685299;28;1212;-84
2023/08/30 01:28:44;;;;;;;16.15;13.55;;;;;;;16.48;69.39;100238.00;684606;28;1196;-84
2023/08/30 01:29:07;;;;;;;16.48;13.90;;;;;;;16.42;69.58;100231.88;686819;28;1395;-84
2023/08/30 01:29:30;;;;;;;15.32;13.73;;;;;;;16.42;69.54;100234.50;690340;28;1548;-84
2023/08/30 01:29:54;;;;;;;15.70;13.95;;;;;;;16.44;69.68;100240.66;687673;28;1196;-83
2023/08/30 01:30:15;;;;;;;15.13;13.60;;;;;;;16.43;69.60;100236.25;682143;29;1287;-83
2023/08/30 01:30:40;;;;;;;14.30;12.90;;;;;;;16.44;69.53;100240.66;684757;28;1429;-83
2023/08/30 01:31:01;;;;;;;14.30;13.00;;;;;;;16.41;69.72;100232.75;684192;28;1426;-84
2023/08/30 01:31:23;;;;;;;14.63;13.15;;;;;;;16.41;69.63;100245.94;684498;28;1168;-84
2023/08/30 01:31:45;;;;;;;15.20;13.70;;;;;;;16.40;69.58;100233.66;686096;28;1451;-84
2023/08/30 01:32:09;;;;;;;15.43;13.80;;;;;;;16.40;69.67;100244.19;680756;28;1383;-84
2023/08/30 01:32:30;;;;;;;15.32;13.73;;;;;;;16.38;69.68;100237.16;687624;28;1338;-84
2023/08/30 01:32:54;;;;;;;15.20;13.65;;;;;;;16.37;69.70;100236.31;687313;28;1153;-85
2023/08/30 01:33:17;;;;;;;14.88;13.38;;;;;;;16.36;69.65;100231.03;684066;28;1374;-83
2023/08/30 01:33:38;;;;;;;14.85;13.30;;;;;;;16.33;69.69;100231.94;681564;29;1227;-84
2023/08/30 01:34:02;;;;;;;14.10;12.70;;;;;;;16.33;69.68;100234.56;681995;28;1082;-84
2023/08/30 01:34:25;;;;;;;14.45;13.05;;;;;;;16.31;69.65;100229.28;677128;29;1385;-83
2023/08/30 01:34:47;;;;;;;15.10;13.50;;;;;;;16.32;69.90;100230.19;681374;29;1084;-84
2023/08/30 01:35:10;;;;;;;16.77;14.25;;;;;;;16.31;69.73;100228.44;684172;28;1814;-84
2023/08/30 01:35:33;;;;;;;16.58;14.60;;;;;;;16.29;69.94;100231.06;684656;28;1069;-85
2023/08/30 01:35:58;;;;;;;19.48;14.65;;;;;;;16.34;69.91;100240.72;682377;28;1612;-83
2023/08/30 01:36:19;;;;;;;20.45;14.57;;;;;;;16.34;69.98;100236.31;686012;28;1426;-84
2023/08/30 01:36:42;;;;;;;19.30;14.80;;;;;;;16.29;70.04;100235.47;679569;29;1361;-84
2023/08/30 01:37:04;;;;;;;17.02;14.55;;;;;;;16.27;69.83;100222.31;679862;28;1391;-84
2023/08/30 01:37:25;;;;;;;15.10;13.43;;;;;;;16.28;69.85;100228.44;682224;28;1527;-85
2023/08/30 01:37:47;;;;;;;16.23;13.90;;;;;;;16.27;69.98;100237.22;684365;28;1408;-84
2023/08/30 01:38:09;;;;;;;16.58;13.85;;;;;;;16.25;69.94;100224.06;684441;28;1465;-84
2023/08/30 01:38:32;;;;;;;18.52;14.68;;;;;;;16.25;70.07;100224.06;681488;29;1355;-83
2023/08/30 01:38:53;;;;;;;15.25;13.65;;;;;;;16.28;70.07;100229.31;682306;29;1138;-83
2023/08/30 01:39:15;;;;;;;15.25;13.65;;;;;;;16.23;69.95;100224.94;682740;28;1803;-84
2023/08/30 01:39:41;;;;;;;15.32;13.75;;;;;;;16.23;70.09;100224.94;681297;28;1058;-84
2023/08/30 01:40:05;;;;;;;16.00;14.30;;;;;;;16.23;69.98;100230.19;682240;28;1116;-84
2023/08/30 01:40:28;;;;;;;16.17;14.48;;;;;;;16.25;69.94;100228.47;688429;28;1518;-84
2023/08/30 01:40:50;;;;;;;15.70;14.10;;;;;;;16.25;70.16;100229.34;689622;28;1727;-83
2023/08/30 01:41:11;;;;;;;16.00;14.05;;;;;;;16.20;70.04;100219.66;685786;28;1481;-83
2023/08/30 01:41:35;;;;;;;16.65;14.00;;;;;;;16.19;70.01;100224.06;687234;28;1496;-84
2023/08/30 01:41:58;;;;;;;15.85;13.77;;;;;;;16.19;70.05;100218.81;687645;28;1293;-84
2023/08/30 01:42:22;;;;;;;15.20;13.60;;;;;;;16.15;69.84;100223.19;684959;28;1244;-84
2023/08/30 01:42:45;;;;;;;15.25;13.75;;;;;;;16.19;69.99;100224.06;684784;28;909;-84
2023/08/30 01:43:07;;;;;;;15.35;13.35;;;;;;;16.13;69.91;100224.09;684608;28;1076;-84
2023/08/30 01:43:31;;;;;;;16.90;13.15;;;;;;;16.13;70.03;100222.34;681855;28;1819;-84
2023/08/30 01:43:53;;;;;;;17.98;13.43;;;;;;;16.13;70.01;100227.59;684812;28;1470;-85
2023/08/30 01:44:16;;;;;;;17.17;13.50;;;;;;;16.10;69.98;100221.47;679387;29;1419;-84
2023/08/30 01:44:38;;;;;;;15.40;13.80;;;;;;;16.12;69.97;100227.59;682017;28;1434;-83
2023/08/30 01:45:00;;;;;;;15.30;13.80;;;;;;;16.09;69.88;100223.22;682060;29;1291;-84
2023/08/30 01:45:23;;;;;;;14.80;13.30;;;;;;;16.09;70.13;100215.31;679609;28;1419;-85